Time;durP1;ratioP1;P1;durP2;ratioP2;P2;SDS_P1;SDS_P2;PMS_P1;PMS_P2;Temp;Humidity;BMP_temperature;BMP_pressure;BME280_temperature;BME280_humidity;BME280_pressure;Samples;Min_cycle;Max_cycle;Signal;HPM_P1;HPM_P2
2021/08/22 00:00:27;;;;;;;7.43;6.55;;;;;;;;;;5092313;28;20044;-84
2021/08/22 00:02:53;;;;;;;7.55;6.00;;;;;;;;;;5093797;28;20158;-84
2021/08/22 00:05:20;;;;;;;8.20;5.95;;;;;;;;;;5094100;28;20051;-84
2021/08/22 00:07:47;;;;;;;8.32;6.78;;;;;;;;;;5092481;28;20063;-85
2021/08/22 00:10:14;;;;;;;7.28;6.53;;;;;;;;;;5094070;28;20378;-85
2021/08/22 00:12:41;;;;;;;9.20;6.50;;;;;;;;;;5095417;28;20047;-85
2021/08/22 00:15:08;;;;;;;10.90;6.70;;;;;;;;;;5110395;28;20101;-85
2021/08/22 00:17:34;;;;;;;10.70;7.28;;;;;;;;;;5112224;28;20036;-85
2021/08/22 00:20:03;;;;;;;12.13;7.22;;;;;;;;;;5108404;28;20138;-85
2021/08/22 00:22:29;;;;;;;9.30;7.30;;;;;;;;;;5101132;28;20044;-85
2021/08/22 00:24:59;;;;;;;8.15;6.43;;;;;;;;;;5099278;28;20044;-85
2021/08/22 00:27:25;;;;;;;9.38;7.07;;;;;;;;;;5100773;28;20102;-85
2021/08/22 00:29:52;;;;;;;8.68;7.47;;;;;;;;;;5098774;28;20040;-85
2021/08/22 00:32:18;;;;;;;10.00;6.40;;;;;;;;;;5097490;28;20048;-85
2021/08/22 00:34:46;;;;;;;8.07;6.97;;;;;;;;;;5096059;28;20252;-85
2021/08/22 00:37:12;;;;;;;12.43;6.85;;;;;;;;;;5095878;28;20083;-85
2021/08/22 00:39:39;;;;;;;10.68;7.53;;;;;;;;;;5095336;28;20078;-85
2021/08/22 00:42:14;;;;;;;9.60;6.38;;;;;;;;;;5097560;28;20415;-85
2021/08/22 00:44:41;;;;;;;8.60;7.20;;;;;;;;;;5130891;27;20071;-85
2021/08/22 00:47:08;;;;;;;10.95;6.35;;;;;;;;;;5097469;28;20048;-84
2021/08/22 00:49:38;;;;;;;8.00;7.10;;;;;;;;;;5130342;27;20071;-85
2021/08/22 00:52:06;;;;;;;8.63;6.30;;;;;;;;;;5095767;28;20044;-85
2021/08/22 00:54:40;;;;;;;6.65;5.53;;;;;;;;;;5096513;28;20361;-85
2021/08/22 00:57:06;;;;;;;8.90;5.57;;;;;;;;;;5097282;28;20157;-85
2021/08/22 00:59:37;;;;;;;11.05;6.00;;;;;;;;;;5096118;28;20044;-85
2021/08/22 01:02:05;;;;;;;9.88;5.13;;;;;;;;;;5098477;28;20241;-85
2021/08/22 01:04:39;;;;;;;7.15;5.30;;;;;;;;;;5108044;28;20237;-85
2021/08/22 01:07:32;;;;;;;8.82;5.80;;;;;;;;;;5112331;28;20082;-86
2021/08/22 01:10:01;;;;;;;6.18;5.45;;;;;;;;;;5102313;28;20129;-86
2021/08/22 01:12:28;;;;;;;9.27;5.78;;;;;;;;;;5099070;28;20131;-85
2021/08/22 01:14:56;;;;;;;7.68;5.97;;;;;;;;;;5097937;28;20374;-85
2021/08/22 01:17:25;;;;;;;8.52;4.63;;;;;;;;;;5097385;28;20435;-85
2021/08/22 01:19:54;;;;;;;6.72;5.55;;;;;;;;;;5099024;28;20048;-85
2021/08/22 01:22:21;;;;;;;11.35;4.75;;;;;;;;;;5098096;28;20036;-85
2021/08/22 01:24:50;;;;;;;7.38;5.13;;;;;;;;;;5097264;28;20113;-84
2021/08/22 01:27:17;;;;;;;6.95;4.60;;;;;;;;;;5098498;28;20048;-85
2021/08/22 01:29:52;;;;;;;5.53;4.40;;;;;;;;;;5097233;28;20086;-84
2021/08/22 01:32:18;;;;;;;9.20;4.72;;;;;;;;;;5098731;28;20040;-84
2021/08/22 01:34:45;;;;;;;13.57;4.90;;;;;;;;;;5113210;28;20082;-84
2021/08/22 01:37:21;;;;;;;7.28;5.05;;;;;;;;;;5114211;28;20093;-85
2021/08/22 01:39:48;;;;;;;7.95;4.85;;;;;;;;;;5102163;28;20233;-85
2021/08/22 01:42:14;;;;;;;6.22;5.00;;;;;;;;;;5133822;27;20079;-84
2021/08/22 01:44:43;;;;;;;6.00;4.28;;;;;;;;;;5097429;28;20051;-85
2021/08/22 01:47:09;;;;;;;5.68;4.20;;;;;;;;;;5096766;28;20090;-85
2021/08/22 01:49:36;;;;;;;4.80;4.28;;;;;;;;;;5099459;28;20067;-85
2021/08/22 01:52:03;;;;;;;5.18;4.57;;;;;;;;;;5098021;28;20044;-84
2021/08/22 01:54:30;;;;;;;7.22;4.32;;;;;;;;;;5097248;28;20155;-84
2021/08/22 01:56:56;;;;;;;8.60;5.05;;;;;;;;;;5097322;28;20047;-84
2021/08/22 01:59:23;;;;;;;7.05;4.53;;;;;;;;;;5098357;28;20109;-84
2021/08/22 02:01:49;;;;;;;4.72;4.00;;;;;;;;;;5095603;28;20135;-85
2021/08/22 02:04:22;;;;;;;5.82;4.85;;;;;;;;;;5096441;28;20058;-86
2021/08/22 02:07:00;;;;;;;7.65;4.35;;;;;;;;;;5097485;28;20056;-86
2021/08/22 02:09:37;;;;;;;5.95;4.45;;;;;;;;;;5090956;28;20295;-86
2021/08/22 02:12:04;;;;;;;;;;;;;;;;;;5098643;28;20328;-84
2021/08/22 02:14:32;;;;;;;5.32;4.15;;;;;;;;;;5098003;28;20284;-83
2021/08/22 02:16:59;;;;;;;6.45;4.53;;;;;;;;;;5107998;28;20056;-84
2021/08/22 02:19:26;;;;;;;8.20;4.57;;;;;;;;;;5113372;28;20052;-83
2021/08/22 02:21:53;;;;;;;4.38;3.95;;;;;;;;;;5102962;28;20349;-83
2021/08/22 02:24:19;;;;;;;6.20;4.50;;;;;;;;;;5131385;27;20113;-86
2021/08/22 02:26:46;;;;;;;7.57;4.28;;;;;;;;;;5103158;28;20076;-83
2021/08/22 02:29:13;;;;;;;5.88;4.40;;;;;;;;;;5111893;28;20062;-83
2021/08/22 02:31:39;;;;;;;6.35;4.30;;;;;;;;;;5100724;28;20063;-83
2021/08/22 02:34:06;;;;;;;6.28;4.38;;;;;;;;;;5098232;28;20079;-83
2021/08/22 02:36:32;;;;;;;5.68;3.90;;;;;;;;;;5095989;28;20044;-83
2021/08/22 02:38:59;;;;;;;5.63;4.15;;;;;;;;;;5107850;28;20051;-83
2021/08/22 02:41:32;;;;;;;7.65;4.03;;;;;;;;;;5112719;28;20036;-85
2021/08/22 02:43:58;;;;;;;6.97;4.43;;;;;;;;;;5144145;27;20040;-85
2021/08/22 02:46:25;;;;;;;5.10;4.30;;;;;;;;;;5099805;28;20044;-84
2021/08/22 02:48:55;;;;;;;7.57;4.15;;;;;;;;;;5098314;28;20052;-84
2021/08/22 02:51:21;;;;;;;6.68;4.10;;;;;;;;;;5099483;28;20087;-85
2021/08/22 02:53:47;;;;;;;7.90;3.80;;;;;;;;;;5097131;28;20100;-85
2021/08/22 02:56:14;;;;;;;6.82;3.60;;;;;;;;;;5097091;28;20060;-85
2021/08/22 02:58:41;;;;;;;5.47;4.03;;;;;;;;;;5095550;28;20035;-85
2021/08/22 03:01:07;;;;;;;4.68;3.72;;;;;;;;;;5097292;28;20363;-85
2021/08/22 03:03:34;;;;;;;7.10;3.63;;;;;;;;;;5096899;28;20075;-85
2021/08/22 03:06:01;;;;;;;6.18;3.53;;;;;;;;;;5096148;28;20408;-85
2021/08/22 03:08:27;;;;;;;7.07;4.30;;;;;;;;;;5095966;28;20098;-85
2021/08/22 03:10:54;;;;;;;4.05;3.28;;;;;;;;;;5098122;28;20071;-85
2021/08/22 03:13:20;;;;;;;5.45;3.90;;;;;;;;;;5097235;28;20056;-85
2021/08/22 03:15:47;;;;;;;5.15;3.53;;;;;;;;;;5098212;28;20154;-85
2021/08/22 03:18:13;;;;;;;5.38;3.92;;;;;;;;;;5096232;28;20090;-85
2021/08/22 03:20:40;;;;;;;7.88;3.72;;;;;;;;;;5096470;28;20428;-85
2021/08/22 03:23:07;;;;;;;6.03;3.50;;;;;;;;;;5097696;28;20093;-85
2021/08/22 03:25:33;;;;;;;9.98;3.80;;;;;;;;;;5098604;28;20435;-85
2021/08/22 03:28:00;;;;;;;7.60;4.28;;;;;;;;;;5097973;28;20094;-85
2021/08/22 03:30:27;;;;;;;3.58;3.25;;;;;;;;;;5098739;28;20064;-85
2021/08/22 03:32:53;;;;;;;4.78;4.00;;;;;;;;;;5107369;28;20040;-85
2021/08/22 03:35:20;;;;;;;6.00;4.15;;;;;;;;;;5111879;28;20063;-85
2021/08/22 03:37:47;;;;;;;6.53;3.40;;;;;;;;;;5099202;28;20036;-85
2021/08/22 03:40:13;;;;;;;5.85;3.95;;;;;;;;;;5096892;28;20040;-85
2021/08/22 03:42:40;;;;;;;7.53;3.95;;;;;;;;;;5096712;28;20120;-85
2021/08/22 03:45:10;;;;;;;6.15;4.07;;;;;;;;;;5098094;28;20052;-84
2021/08/22 03:47:36;;;;;;;5.88;3.67;;;;;;;;;;5097113;28;20048;-85
2021/08/22 03:50:03;;;;;;;7.10;4.10;;;;;;;;;;5129802;27;20048;-84
2021/08/22 03:52:34;;;;;;;4.32;3.70;;;;;;;;;;5112095;28;20137;-84
2021/08/22 03:55:07;;;;;;;3.38;3.00;;;;;;;;;;5112312;28;20051;-84
2021/08/22 03:57:33;;;;;;;4.13;3.25;;;;;;;;;;5098231;28;20322;-85
2021/08/22 04:00:00;;;;;;;5.35;3.70;;;;;;;;;;5098388;28;20052;-84
2021/08/22 04:02:26;;;;;;;3.70;3.05;;;;;;;;;;5094412;28;20415;-84
2021/08/22 04:04:54;;;;;;;5.43;3.88;;;;;;;;;;5131675;27;20051;-84
2021/08/22 04:07:20;;;;;;;7.07;3.38;;;;;;;;;;5097998;28;20044;-84
2021/08/22 04:09:47;;;;;;;6.55;3.85;;;;;;;;;;5096365;28;20040;-84
2021/08/22 04:12:13;;;;;;;5.75;3.33;;;;;;;;;;5112282;28;20086;-84
2021/08/22 04:14:40;;;;;;;6.53;3.70;;;;;;;;;;5111227;28;20036;-84
2021/08/22 04:17:06;;;;;;;7.47;3.50;;;;;;;;;;5104140;28;20047;-84
2021/08/22 04:19:42;;;;;;;7.43;3.88;;;;;;;;;;5095661;28;20048;-84
2021/08/22 04:22:09;;;;;;;7.18;4.00;;;;;;;;;;5095968;28;20052;-84
2021/08/22 04:24:35;;;;;;;3.97;3.58;;;;;;;;;;5095386;28;20048;-84
2021/08/22 04:27:03;;;;;;;5.97;4.20;;;;;;;;;;5095516;28;20059;-84
2021/08/22 04:29:30;;;;;;;5.50;3.80;;;;;;;;;;5095653;28;20301;-84
2021/08/22 04:31:57;;;;;;;6.47;3.70;;;;;;;;;;5095144;28;20487;-84
2021/08/22 04:34:24;;;;;;;8.05;4.30;;;;;;;;;;5128982;27;20363;-85
2021/08/22 04:36:50;;;;;;;6.70;3.53;;;;;;;;;;5095983;28;20062;-85
2021/08/22 04:39:17;;;;;;;5.03;3.75;;;;;;;;;;5129999;27;20044;-84
2021/08/22 04:41:47;;;;;;;4.82;3.72;;;;;;;;;;5096362;28;20102;-85
2021/08/22 04:44:14;;;;;;;4.93;3.72;;;;;;;;;;5096237;28;20074;-84
2021/08/22 04:46:42;;;;;;;7.88;4.05;;;;;;;;;;5096461;28;20076;-84
2021/08/22 04:49:09;;;;;;;6.03;3.83;;;;;;;;;;5096288;28;20309;-84
2021/08/22 04:51:36;;;;;;;9.80;4.07;;;;;;;;;;5096119;28;20374;-84
2021/08/22 04:54:02;;;;;;;7.97;4.63;;;;;;;;;;5095207;28;20059;-84
2021/08/22 04:56:32;;;;;;;6.72;4.10;;;;;;;;;;5096328;28;20091;-84
2021/08/22 04:58:58;;;;;;;7.03;4.22;;;;;;;;;;5094092;28;20518;-85
2021/08/22 05:01:25;;;;;;;6.15;4.85;;;;;;;;;;5098799;28;20039;-85
2021/08/22 05:03:55;;;;;;;5.15;4.13;;;;;;;;;;5100667;28;20054;-85
2021/08/22 05:06:22;;;;;;;6.97;4.78;;;;;;;;;;5096176;28;20086;-85
2021/08/22 05:08:48;;;;;;;5.30;4.13;;;;;;;;;;5101247;28;20056;-86
2021/08/22 05:11:18;;;;;;;7.55;4.40;;;;;;;;;;5104790;28;20048;-85
2021/08/22 05:13:45;;;;;;;5.88;4.18;;;;;;;;;;5113157;28;20044;-84
2021/08/22 05:16:11;;;;;;;6.63;4.93;;;;;;;;;;5116144;28;20032;-84
2021/08/22 05:18:38;;;;;;;5.57;4.40;;;;;;;;;;5116155;28;20069;-84
2021/08/22 05:21:04;;;;;;;7.05;5.18;;;;;;;;;;5112880;28;20056;-84
2021/08/22 05:23:31;;;;;;;15.95;5.53;;;;;;;;;;5104307;28;20040;-84
2021/08/22 05:26:00;;;;;;;7.53;5.50;;;;;;;;;;5105347;28;20133;-83
2021/08/22 05:28:27;;;;;;;7.80;5.65;;;;;;;;;;5114783;28;20028;-83
2021/08/22 05:30:54;;;;;;;9.02;5.88;;;;;;;;;;5113654;28;20074;-83
2021/08/22 05:33:20;;;;;;;11.40;5.68;;;;;;;;;;5102441;28;20100;-83
2021/08/22 05:35:47;;;;;;;8.35;5.90;;;;;;;;;;5101263;28;20051;-83
2021/08/22 05:38:13;;;;;;;7.72;5.57;;;;;;;;;;5100611;28;20398;-84
2021/08/22 05:40:39;;;;;;;7.13;6.03;;;;;;;;;;5100643;28;20172;-84
2021/08/22 05:43:06;;;;;;;7.75;5.65;;;;;;;;;;5112735;28;20055;-85
2021/08/22 05:45:35;;;;;;;9.15;6.63;;;;;;;;;;5148475;27;20036;-86
2021/08/22 05:48:01;;;;;;;9.50;6.72;;;;;;;;;;5110915;28;20054;-87
2021/08/22 05:50:28;;;;;;;13.60;6.28;;;;;;;;;;5099255;28;20328;-86
2021/08/22 05:52:54;;;;;;;8.30;6.05;;;;;;;;;;5099915;28;20294;-87
2021/08/22 05:55:25;;;;;;;8.07;7.22;;;;;;;;;;5102049;28;20062;-85
2021/08/22 05:57:51;;;;;;;9.52;7.20;;;;;;;;;;5105136;28;20820;-84
2021/08/22 06:00:18;;;;;;;10.30;7.35;;;;;;;;;;5099298;28;20275;-85
2021/08/22 06:02:45;;;;;;;10.85;7.68;;;;;;;;;;5132035;27;20070;-85
2021/08/22 06:05:11;;;;;;;9.65;7.45;;;;;;;;;;5099831;28;20333;-85
2021/08/22 06:07:38;;;;;;;9.77;7.82;;;;;;;;;;5101200;28;20059;-85
2021/08/22 06:10:06;;;;;;;10.02;7.72;;;;;;;;;;5099029;28;20056;-85
2021/08/22 06:12:33;;;;;;;11.35;8.43;;;;;;;;;;5098713;28;20411;-86
2021/08/22 06:15:00;;;;;;;10.55;7.88;;;;;;;;;;5098801;28;20058;-87
2021/08/22 06:17:26;;;;;;;16.55;8.98;;;;;;;;;;5097548;28;20051;-86
2021/08/22 06:19:53;;;;;;;11.10;8.45;;;;;;;;;;5100875;28;20121;-87
2021/08/22 06:22:19;;;;;;;11.35;9.05;;;;;;;;;;5098875;28;20106;-87
2021/08/22 06:24:46;;;;;;;16.15;8.27;;;;;;;;;;5100055;28;20048;-85
2021/08/22 06:27:14;;;;;;;11.95;8.05;;;;;;;;;;5103138;28;20087;-86
2021/08/22 06:29:47;;;;;;;11.93;8.48;;;;;;;;;;5094773;28;20116;-86
2021/08/22 06:32:13;;;;;;;14.98;9.65;;;;;;;;;;5112417;28;20048;-85
2021/08/22 06:34:40;;;;;;;14.68;9.30;;;;;;;;;;5101126;28;20044;-85
2021/08/22 06:37:09;;;;;;;14.25;9.32;;;;;;;;;;5104258;28;20052;-85
2021/08/22 06:39:40;;;;;;;13.27;9.65;;;;;;;;;;5101490;28;20064;-86
2021/08/22 06:42:07;;;;;;;13.63;10.40;;;;;;;;;;5109279;28;20103;-86
2021/08/22 06:44:38;;;;;;;14.30;10.77;;;;;;;;;;5110906;28;20039;-88
2021/08/22 06:47:11;;;;;;;15.10;10.15;;;;;;;;;;5107596;28;20078;-89
2021/08/22 06:49:37;;;;;;;11.93;10.00;;;;;;;;;;5108352;28;20044;-87
2021/08/22 06:52:08;;;;;;;19.27;11.15;;;;;;;;;;5094497;28;20090;-87
2021/08/22 06:54:35;;;;;;;13.02;9.57;;;;;;;;;;5099511;28;20118;-87
2021/08/22 06:57:02;;;;;;;12.20;9.07;;;;;;;;;;5098915;28;20048;-87
2021/08/22 06:59:32;;;;;;;11.88;8.68;;;;;;;;;;5100608;28;20074;-86
2021/08/22 07:01:59;;;;;;;14.48;9.95;;;;;;;;;;5098610;28;20043;-87
2021/08/22 07:04:26;;;;;;;13.63;10.55;;;;;;;;;;5097374;28;20043;-86
2021/08/22 07:06:55;;;;;;;15.18;10.07;;;;;;;;;;5098884;28;20434;-86
2021/08/22 07:09:21;;;;;;;12.57;10.10;;;;;;;;;;5098128;28;20044;-84
2021/08/22 07:11:48;;;;;;;14.65;10.57;;;;;;;;;;5097497;28;20360;-84
2021/08/22 07:14:14;;;;;;;13.85;9.77;;;;;;;;;;5098362;28;20043;-84
2021/08/22 07:16:41;;;;;;;12.65;9.57;;;;;;;;;;5111167;28;20036;-84
2021/08/22 07:19:08;;;;;;;13.73;10.05;;;;;;;;;;5113375;28;20048;-84
2021/08/22 07:21:34;;;;;;;15.35;10.10;;;;;;;;;;5109522;28;20325;-85
2021/08/22 07:24:01;;;;;;;12.23;8.80;;;;;;;;;;5091692;28;20059;-84
2021/08/22 07:26:28;;;;;;;12.77;9.82;;;;;;;;;;5095208;28;20048;-84
2021/08/22 07:28:54;;;;;;;14.95;10.15;;;;;;;;;;5096254;28;20109;-84
2021/08/22 07:31:27;;;;;;;13.32;10.30;;;;;;;;;;5095428;28;20055;-84
2021/08/22 07:33:54;;;;;;;13.95;10.65;;;;;;;;;;5095130;28;20138;-84
2021/08/22 07:36:20;;;;;;;14.10;10.18;;;;;;;;;;5092238;28;20044;-84
2021/08/22 07:38:57;;;;;;;15.52;11.98;;;;;;;;;;5094483;28;20363;-84
2021/08/22 07:41:23;;;;;;;14.23;11.18;;;;;;;;;;5079778;28;20049;-84
2021/08/22 07:43:49;;;;;;;17.50;11.82;;;;;;;;;;5094114;28;20105;-83
2021/08/22 07:46:19;;;;;;;14.75;10.70;;;;;;;;;;5093634;28;20167;-83
2021/08/22 07:48:46;;;;;;;18.83;13.13;;;;;;;;;;5097621;28;20125;-83
2021/08/22 07:51:12;;;;;;;15.63;12.27;;;;;;;;;;5105418;28;20067;-83
2021/08/22 07:53:39;;;;;;;13.55;11.75;;;;;;;;;;5106833;28;20064;-83
2021/08/22 07:56:08;;;;;;;15.65;12.35;;;;;;;;;;5095246;28;20044;-84
2021/08/22 07:58:35;;;;;;;18.98;12.90;;;;;;;;;;5093181;28;20087;-84
2021/08/22 08:01:01;;;;;;;16.20;12.98;;;;;;;;;;5094843;28;20048;-84
2021/08/22 08:03:28;;;;;;;16.08;12.32;;;;;;;;;;5095697;28;20051;-84
2021/08/22 08:05:55;;;;;;;17.23;13.02;;;;;;;;;;5096783;28;20060;-84
2021/08/22 08:08:23;;;;;;;15.45;12.02;;;;;;;;;;5093648;28;20439;-83
2021/08/22 08:10:49;;;;;;;16.40;13.73;;;;;;;;;;5095874;28;20374;-84
2021/08/22 08:13:17;;;;;;;14.85;12.07;;;;;;;;;;5094125;28;20109;-84
2021/08/22 08:15:43;;;;;;;16.33;12.75;;;;;;;;;;5107892;28;20051;-83
2021/08/22 08:18:12;;;;;;;16.23;13.45;;;;;;;;;;5110427;28;20049;-83
2021/08/22 08:20:39;;;;;;;21.80;14.38;;;;;;;;;;5096293;28;20044;-84
2021/08/22 08:23:05;;;;;;;18.20;13.90;;;;;;;;;;5097534;28;20090;-85
2021/08/22 08:25:32;;;;;;;19.52;14.13;;;;;;;;;;5103136;28;20082;-85
2021/08/22 08:28:00;;;;;;;18.33;14.32;;;;;;;;;;5110519;28;20071;-84
2021/08/22 08:30:26;;;;;;;17.52;14.23;;;;;;;;;;5097115;28;20106;-84
2021/08/22 08:32:53;;;;;;;16.50;13.98;;;;;;;;;;5101457;28;20059;-85
2021/08/22 08:35:20;;;;;;;20.88;15.15;;;;;;;;;;5096117;28;20043;-84
2021/08/22 08:37:46;;;;;;;19.85;15.20;;;;;;;;;;5098660;28;20048;-84
2021/08/22 08:40:23;;;;;;;20.02;14.95;;;;;;;;;;5095945;28;20113;-84
2021/08/22 08:42:56;;;;;;;20.00;14.70;;;;;;;;;;5094911;28;20063;-84
2021/08/22 08:45:43;;;;;;;20.38;15.13;;;;;;;;;;5127726;27;20052;-84
2021/08/22 08:48:09;;;;;;;;;;;;;;;;;;5096260;28;20292;-84
2021/08/22 08:50:59;;;;;;;24.80;17.15;;;;;;;;;;5096372;28;19977;-83
2021/08/22 08:53:25;;;;;;;22.45;16.75;;;;;;;;;;5093764;28;20032;-83
2021/08/22 08:56:12;;;;;;;25.95;17.15;;;;;;;;;;5113312;28;20055;-83
2021/08/22 08:58:50;;;;;;;21.27;15.68;;;;;;;;;;5109019;28;20048;-84
2021/08/22 09:01:18;;;;;;;21.50;16.50;;;;;;;;;;5096401;28;20044;-84
2021/08/22 09:04:04;;;;;;;29.67;17.25;;;;;;;;;;5095996;28;20249;-84
2021/08/22 09:06:49;;;;;;;25.92;17.55;;;;;;;;;;5096112;28;20079;-84
2021/08/22 09:09:34;;;;;;;23.15;18.27;;;;;;;;;;5096361;28;20052;-83
2021/08/22 09:12:01;;;;;;;23.25;17.88;;;;;;;;;;5104788;28;20052;-83
2021/08/22 09:15:06;;;;;;;20.13;16.67;;;;;;;;;;5106896;28;20071;-83
2021/08/22 09:17:51;;;;;;;26.85;19.88;;;;;;;;;;5093803;28;20098;-83
2021/08/22 09:20:43;;;;;;;22.65;19.15;;;;;;;;;;5096606;28;20138;-83
2021/08/22 09:23:28;;;;;;;23.88;18.85;;;;;;;;;;5093961;28;20055;-83
2021/08/22 09:26:13;;;;;;;26.38;18.23;;;;;;;;;;5096268;28;20286;-83
2021/08/22 09:29:00;;;;;;;23.58;18.65;;;;;;;;;;5092877;28;20094;-84
2021/08/22 09:31:47;;;;;;;24.67;19.42;;;;;;;;;;5092830;28;20048;-84
2021/08/22 09:34:33;;;;;;;23.30;17.92;;;;;;;;;;5094211;28;20160;-84
2021/08/22 09:37:09;;;;;;;22.58;18.83;;;;;;;;;;5095532;28;20055;-83
2021/08/22 09:39:35;;;;;;;;;;;;;;;;;;5096652;28;20090;-84
2021/08/22 09:42:21;;;;;;;22.73;19.42;;;;;;;;;;5094567;28;19920;-84
2021/08/22 09:45:08;;;;;;;27.43;19.70;;;;;;;;;;5094187;28;20086;-84
2021/08/22 09:47:47;;;;;;;25.85;19.05;;;;;;;;;;5093081;28;20051;-84
2021/08/22 09:50:33;;;;;;;27.05;20.10;;;;;;;;;;5095598;28;20052;-84
2021/08/22 09:53:40;;;;;;;26.58;20.40;;;;;;;;;;5091330;28;20052;-84
2021/08/22 09:56:25;;;;;;;30.85;21.80;;;;;;;;;;5063753;28;20386;-84
2021/08/22 09:59:20;;;;;;;25.13;20.88;;;;;;;;;;5049867;28;20052;-84
2021/08/22 10:02:02;;;;;;;25.05;20.48;;;;;;;;;;5065757;28;20076;-84
2021/08/22 10:04:48;;;;;;;26.45;20.65;;;;;;;;;;5102618;28;20040;-82
2021/08/22 10:07:32;;;;;;;26.57;20.00;;;;;;;;;;5106985;28;20056;-83
2021/08/22 10:10:08;;;;;;;22.98;19.35;;;;;;;;;;5090113;28;20063;-83
2021/08/22 10:12:38;;;;;;;24.10;20.63;;;;;;;;;;5095633;28;20113;-83
2021/08/22 10:15:05;;;;;;;24.77;19.25;;;;;;;;;;5099158;28;20044;-82
2021/08/22 10:17:32;;;;;;;26.42;19.92;;;;;;;;;;5107843;28;20055;-82
2021/08/22 10:19:59;;;;;;;25.70;20.52;;;;;;;;;;5107204;28;20116;-82
2021/08/22 10:22:35;;;;;;;29.67;22.17;;;;;;;;;;5096047;28;20432;-82
2021/08/22 10:25:05;;;;;;;26.80;22.45;;;;;;;;;;5095193;28;20396;-83
2021/08/22 10:27:44;;;;;;;30.25;23.30;;;;;;;;;;5096407;28;20056;-84
2021/08/22 10:30:12;;;;;;;30.83;22.88;;;;;;;;;;5105324;28;20047;-85
2021/08/22 10:32:58;;;;;;;30.45;24.25;;;;;;;;;;5109763;28;20131;-84
2021/08/22 10:35:25;;;;;;;31.10;25.35;;;;;;;;;;5104535;28;20048;-85
2021/08/22 10:37:52;;;;;;;29.33;23.52;;;;;;;;;;5097432;28;20039;-84
2021/08/22 10:40:25;;;;;;;30.63;24.95;;;;;;;;;;5095190;28;20047;-84
2021/08/22 10:43:04;;;;;;;38.83;29.23;;;;;;;;;;5094796;28;20044;-85
2021/08/22 10:45:50;;;;;;;34.85;27.73;;;;;;;;;;5096693;28;20253;-85
2021/08/22 10:48:23;;;;;;;37.70;31.20;;;;;;;;;;5077641;28;20441;-86
2021/08/22 10:50:58;;;;;;;46.25;32.15;;;;;;;;;;5075820;28;20112;-85
2021/08/22 10:53:32;;;;;;;38.97;31.05;;;;;;;;;;5086687;28;20300;-86
2021/08/22 10:55:59;;;;;;;37.25;29.33;;;;;;;;;;5098503;28;20052;-86
2021/08/22 10:58:46;;;;;;;55.80;31.38;;;;;;;;;;5129716;27;20054;-86
2021/08/22 11:01:17;;;;;;;37.95;30.73;;;;;;;;;;5082457;28;20186;-85
2021/08/22 11:03:59;;;;;;;38.53;29.50;;;;;;;;;;5088728;28;20101;-86
2021/08/22 11:06:28;;;;;;;34.63;29.35;;;;;;;;;;5092733;28;20182;-84
2021/08/22 11:08:55;;;;;;;43.90;33.28;;;;;;;;;;5102992;28;20060;-84
2021/08/22 11:11:22;;;;;;;38.15;31.75;;;;;;;;;;5097314;28;20043;-85
2021/08/22 11:13:55;;;;;;;37.78;29.13;;;;;;;;;;5095992;28;20370;-85
2021/08/22 11:16:38;;;;;;;40.00;30.55;;;;;;;;;;5108714;28;20064;-84
2021/08/22 11:19:07;;;;;;;35.38;27.85;;;;;;;;;;5108327;28;20220;-84
2021/08/22 11:21:33;;;;;;;35.60;28.83;;;;;;;;;;5100055;28;20056;-84
2021/08/22 11:24:01;;;;;;;31.98;27.70;;;;;;;;;;5098052;28;20048;-85
2021/08/22 11:26:29;;;;;;;30.70;27.10;;;;;;;;;;5104013;28;20058;-85
2021/08/22 11:29:02;;;;;;;31.35;26.15;;;;;;;;;;5115014;28;20043;-85
2021/08/22 11:31:30;;;;;;;29.38;24.83;;;;;;;;;;5119963;28;20300;-85
2021/08/22 11:34:10;;;;;;;27.83;24.40;;;;;;;;;;5105989;28;20176;-85
2021/08/22 11:36:43;;;;;;;27.48;23.63;;;;;;;;;;5076016;28;20117;-84
2021/08/22 11:39:10;;;;;;;25.90;22.77;;;;;;;;;;5074244;28;20052;-84
2021/08/22 11:41:39;;;;;;;24.08;21.48;;;;;;;;;;5089190;28;20093;-85
2021/08/22 11:44:08;;;;;;;25.38;22.27;;;;;;;;;;5122161;28;20043;-85
2021/08/22 11:46:35;;;;;;;28.58;23.90;;;;;;;;;;5122835;28;20071;-85
2021/08/22 11:49:02;;;;;;;26.30;23.10;;;;;;;;;;5139836;27;20086;-85
2021/08/22 11:51:31;;;;;;;24.40;21.80;;;;;;;;;;5110764;28;20214;-85
2021/08/22 11:53:59;;;;;;;26.35;22.70;;;;;;;;;;5130421;28;20047;-85
2021/08/22 11:56:26;;;;;;;26.23;22.17;;;;;;;;;;5117051;28;20043;-85
2021/08/22 11:59:08;;;;;;;;;;;;;;;;;;5116297;28;20385;-85
2021/08/22 12:01:34;;;;;;;22.58;20.08;;;;;;;;;;5096392;28;19955;-85
2021/08/22 12:04:02;;;;;;;24.10;20.60;;;;;;;;;;5094780;28;20389;-85
2021/08/22 12:06:35;;;;;;;23.73;21.23;;;;;;;;;;5096538;28;20313;-84
2021/08/22 12:09:13;;;;;;;22.08;19.08;;;;;;;;;;5097220;28;20060;-84
2021/08/22 12:11:53;;;;;;;25.98;20.63;;;;;;;;;;5127224;27;20052;-84
2021/08/22 12:14:19;;;;;;;25.58;20.27;;;;;;;;;;5097695;28;20051;-84
2021/08/22 12:16:56;;;;;;;24.95;22.10;;;;;;;;;;5097396;28;20300;-84
2021/08/22 12:19:27;;;;;;;22.20;19.90;;;;;;;;;;5076692;28;20048;-85
2021/08/22 12:21:54;;;;;;;21.73;19.42;;;;;;;;;;5077316;28;20084;-86
2021/08/22 12:24:31;;;;;;;20.27;16.77;;;;;;;;;;5078259;28;20131;-85
2021/08/22 12:26:58;;;;;;;22.10;17.05;;;;;;;;;;5077128;28;20469;-85
2021/08/22 12:29:32;;;;;;;18.50;16.17;;;;;;;;;;5076017;28;20099;-85
2021/08/22 12:32:13;;;;;;;17.27;15.10;;;;;;;;;;5113246;28;20062;-85
2021/08/22 12:34:45;;;;;;;20.60;15.30;;;;;;;;;;5084152;28;20079;-85
2021/08/22 12:37:20;;;;;;;22.95;20.27;;;;;;;;;;5101629;28;20048;-85
2021/08/22 12:40:42;;;;;;;18.75;16.63;;;;;;;;;;5099232;28;20105;-85
2021/08/22 12:43:23;;;;;;;20.92;17.63;;;;;;;;;;5097968;28;20048;-84
2021/08/22 12:45:49;;;;;;;20.67;18.45;;;;;;;;;;5096178;28;20052;-83
2021/08/22 12:48:18;;;;;;;16.23;14.68;;;;;;;;;;5096706;28;20404;-83
2021/08/22 12:50:44;;;;;;;14.35;12.85;;;;;;;;;;5097299;28;20224;-83
2021/08/22 12:53:11;;;;;;;15.85;12.70;;;;;;;;;;5095848;28;20076;-83
2021/08/22 12:55:38;;;;;;;12.50;11.27;;;;;;;;;;5085550;28;20040;-83
2021/08/22 12:58:04;;;;;;;11.85;10.60;;;;;;;;;;5127645;27;20064;-84
2021/08/22 13:00:30;;;;;;;12.52;9.45;;;;;;;;;;5098205;28;20101;-84
2021/08/22 13:03:03;;;;;;;14.82;11.13;;;;;;;;;;5100697;28;20052;-83
2021/08/22 13:05:30;;;;;;;11.50;10.23;;;;;;;;;;5086233;28;20045;-83
2021/08/22 13:07:56;;;;;;;11.98;10.45;;;;;;;;;;5108686;27;20102;-84
2021/08/22 13:10:26;;;;;;;12.57;9.52;;;;;;;;;;5089283;28;20179;-84
2021/08/22 13:12:53;;;;;;;11.75;9.60;;;;;;;;;;5105771;28;20099;-84
2021/08/22 13:15:20;;;;;;;10.85;9.75;;;;;;;;;;5107594;28;20101;-83
2021/08/22 13:17:47;;;;;;;10.25;9.13;;;;;;;;;;5109247;28;20048;-85
2021/08/22 13:20:13;;;;;;;8.82;7.93;;;;;;;;;;5108500;28;20048;-83
2021/08/22 13:22:41;;;;;;;12.50;7.90;;;;;;;;;;5102621;28;20044;-83
2021/08/22 13:25:07;;;;;;;10.20;8.35;;;;;;;;;;5093508;28;20428;-84
2021/08/22 13:27:34;;;;;;;8.45;7.53;;;;;;;;;;5093440;28;20087;-84
2021/08/22 13:30:00;;;;;;;9.38;7.68;;;;;;;;;;5092118;28;20072;-84
2021/08/22 13:32:27;;;;;;;8.45;7.55;;;;;;;;;;5090995;28;20047;-84
2021/08/22 13:35:06;;;;;;;9.27;7.60;;;;;;;;;;5091739;28;20048;-84
2021/08/22 13:37:33;;;;;;;10.30;6.80;;;;;;;;;;5093380;28;20083;-84
2021/08/22 13:39:59;;;;;;;9.57;7.32;;;;;;;;;;5073224;28;20076;-82
2021/08/22 13:42:26;;;;;;;8.18;7.15;;;;;;;;;;5076460;28;20044;-82
2021/08/22 13:44:52;;;;;;;8.98;7.85;;;;;;;;;;5106966;28;20438;-82
2021/08/22 13:47:19;;;;;;;12.98;7.47;;;;;;;;;;5112894;27;20515;-82
2021/08/22 13:49:45;;;;;;;7.05;6.35;;;;;;;;;;5091485;28;20094;-82
2021/08/22 13:52:12;;;;;;;8.70;6.93;;;;;;;;;;5078559;28;20048;-83
2021/08/22 13:54:39;;;;;;;9.93;7.13;;;;;;;;;;5086944;28;20043;-83
2021/08/22 13:57:05;;;;;;;8.02;6.85;;;;;;;;;;5095907;28;20109;-83
2021/08/22 13:59:33;;;;;;;8.02;7.10;;;;;;;;;;5091690;28;20133;-83
2021/08/22 14:01:59;;;;;;;10.40;7.15;;;;;;;;;;5090428;28;20071;-83
2021/08/22 14:04:34;;;;;;;9.65;7.32;;;;;;;;;;5085113;28;20052;-83
2021/08/22 14:07:00;;;;;;;8.50;7.13;;;;;;;;;;5079663;28;20239;-83
2021/08/22 14:09:26;;;;;;;6.93;6.13;;;;;;;;;;5119137;27;20064;-83
2021/08/22 14:11:53;;;;;;;8.23;6.85;;;;;;;;;;5090523;28;20151;-82
2021/08/22 14:14:20;;;;;;;8.02;6.78;;;;;;;;;;5130852;27;20054;-82
2021/08/22 14:16:46;;;;;;;7.63;6.60;;;;;;;;;;5102933;28;20056;-82
2021/08/22 14:19:13;;;;;;;7.22;5.65;;;;;;;;;;5101398;28;20048;-82
2021/08/22 14:21:39;;;;;;;7.00;6.28;;;;;;;;;;5092314;28;20161;-83
2021/08/22 14:24:06;;;;;;;6.93;6.22;;;;;;;;;;5090565;28;20044;-83
2021/08/22 14:26:32;;;;;;;8.55;6.97;;;;;;;;;;5108605;28;20031;-82
2021/08/22 14:28:59;;;;;;;8.68;6.72;;;;;;;;;;5099112;28;20481;-83
2021/08/22 14:31:25;;;;;;;6.53;5.50;;;;;;;;;;5096249;28;20054;-83
2021/08/22 14:33:52;;;;;;;5.97;5.38;;;;;;;;;;5101583;28;20052;-83
2021/08/22 14:36:19;;;;;;;6.50;5.40;;;;;;;;;;5096493;28;20097;-83
2021/08/22 14:38:46;;;;;;;5.72;5.13;;;;;;;;;;5093521;28;20048;-83
2021/08/22 14:41:13;;;;;;;6.28;5.68;;;;;;;;;;5092557;28;20105;-83
2021/08/22 14:43:40;;;;;;;6.22;5.45;;;;;;;;;;5091595;28;20097;-83
2021/08/22 14:46:07;;;;;;;7.65;5.93;;;;;;;;;;5101278;28;20056;-83
2021/08/22 14:48:37;;;;;;;7.38;6.57;;;;;;;;;;5109751;28;20058;-83